createdAt,value
2022-07-31T00:01:04.565Z,23.27
2022-07-31T00:03:33.184Z,20.03
2022-07-31T00:06:02.020Z,26.30
2022-07-31T00:08:30.583Z,20.23
2022-07-31T00:10:59.225Z,20.97
2022-07-31T00:13:56.361Z,28.43
2022-07-31T00:16:17.936Z,18.60
2022-07-31T00:18:46.555Z,21.77
2022-07-31T00:21:15.093Z,23.23
2022-07-31T00:23:43.601Z,21.47
2022-07-31T00:26:12.113Z,21.73
2022-07-31T00:28:40.677Z,19.47
2022-07-31T00:31:09.200Z,18.07
2022-07-31T00:33:39.077Z,21.70
2022-07-31T00:36:08.060Z,19.60
2022-07-31T00:38:36.714Z,22.90
2022-07-31T00:41:05.712Z,25.93
2022-07-31T00:43:34.329Z,22.83
2022-07-31T00:46:03.110Z,25.77
2022-07-31T00:48:31.773Z,22.33
2022-07-31T00:51:03.372Z,24.57
2022-07-31T00:53:31.906Z,30.60
2022-07-31T00:56:00.461Z,21.70
2022-07-31T00:58:29.004Z,23.50
2022-07-31T01:00:57.608Z,27.20
2022-07-31T01:03:26.232Z,21.37
2022-07-31T01:05:54.754Z,24.17
2022-07-31T01:08:30.659Z,20.80
2022-07-31T01:11:05.637Z,28.93
2022-07-31T01:13:48.601Z,25.20
2022-07-31T01:16:26.422Z,20.37
2022-07-31T01:18:57.941Z,32.20
2022-07-31T01:21:37.098Z,20.40
2022-07-31T01:24:32.481Z,29.60
2022-07-31T01:27:05.694Z,22.50
2022-07-31T01:29:51.556Z,25.47
2022-07-31T01:32:28.288Z,21.40
2022-07-31T01:35:03.361Z,29.13
2022-07-31T01:37:35.774Z,22.67
2022-07-31T01:40:15.565Z,22.30
2022-07-31T01:42:47.755Z,23.53
2022-07-31T01:45:22.526Z,23.50
2022-07-31T01:47:52.941Z,24.47
2022-07-31T01:50:43.730Z,29.27
2022-07-31T01:53:27.184Z,22.80
2022-07-31T01:56:03.833Z,22.60
2022-07-31T01:58:44.319Z,31.40
2022-07-31T02:01:18.373Z,24.63
2022-07-31T02:03:56.268Z,24.27
2022-07-31T02:06:27.595Z,23.67
2022-07-31T02:08:58.027Z,23.10
2022-07-31T02:11:26.752Z,19.60
2022-07-31T02:13:56.585Z,20.50
2022-07-31T02:16:27.687Z,20.83
2022-07-31T02:18:58.535Z,19.90
2022-07-31T02:21:27.550Z,20.30
2022-07-31T02:23:57.198Z,23.73
2022-07-31T02:26:28.839Z,28.60
2022-07-31T02:28:58.272Z,27.70
2022-07-31T02:31:30.610Z,30.50
2022-07-31T02:33:59.658Z,26.07
2022-07-31T02:36:29.822Z,29.43
2022-07-31T02:38:59.422Z,30.30
2022-07-31T02:41:28.933Z,29.87
2022-07-31T02:43:58.609Z,30.40
2022-07-31T02:46:29.520Z,27.17
2022-07-31T02:48:59.208Z,24.87
2022-07-31T02:51:29.043Z,33.50
2022-07-31T02:54:09.960Z,26.07
2022-07-31T02:56:39.450Z,23.90
2022-07-31T02:59:08.159Z,24.97
2022-07-31T03:01:38.787Z,25.53
2022-07-31T03:04:07.477Z,24.03
2022-07-31T03:06:36.328Z,23.03
2022-07-31T03:09:04.991Z,18.33
2022-07-31T03:11:33.920Z,24.17
2022-07-31T03:14:04.610Z,29.13
2022-07-31T03:16:34.226Z,21.97
2022-07-31T03:19:06.277Z,31.73
2022-07-31T03:21:35.806Z,28.70
2022-07-31T03:24:04.928Z,27.03
2022-07-31T03:26:33.982Z,29.20
2022-07-31T03:29:02.875Z,22.60
2022-07-31T03:31:31.511Z,22.27
2022-07-31T03:34:00.162Z,22.47
2022-07-31T03:36:32.059Z,24.03
2022-07-31T03:39:00.643Z,23.03
2022-07-31T03:41:29.205Z,31.17
2022-07-31T03:43:57.761Z,23.30
2022-07-31T03:46:28.108Z,19.70
2022-07-31T03:48:57.183Z,18.50
2022-07-31T03:51:26.037Z,24.90
2022-07-31T03:54:00.146Z,25.00
2022-07-31T03:56:30.334Z,21.13
2022-07-31T03:59:02.923Z,26.00
2022-07-31T04:01:57.512Z,25.67
2022-07-31T04:04:36.656Z,30.33
2022-07-31T04:07:13.437Z,23.33
2022-07-31T04:09:51.905Z,28.27
2022-07-31T04:12:28.157Z,24.43
2022-07-31T04:15:05.488Z,20.13
2022-07-31T04:17:46.370Z,23.10
2022-07-31T04:20:25.382Z,28.37
2022-07-31T04:22:56.122Z,22.47
2022-07-31T04:25:38.502Z,25.47
2022-07-31T04:28:13.276Z,23.07
2022-07-31T04:30:57.300Z,19.70
2022-07-31T04:33:35.995Z,21.13
2022-07-31T04:36:29.524Z,20.47
2022-07-31T04:39:12.176Z,18.03
2022-07-31T04:41:56.215Z,16.37
2022-07-31T04:44:35.670Z,17.63
2022-07-31T04:47:13.562Z,23.23
2022-07-31T04:49:50.793Z,20.03
2022-07-31T04:52:24.917Z,21.87
2022-07-31T04:54:58.999Z,16.03
2022-07-31T04:57:37.488Z,14.30
2022-07-31T05:00:19.463Z,19.60
2022-07-31T05:02:48.219Z,14.73
2022-07-31T05:05:26.345Z,12.73
2022-07-31T05:07:57.157Z,20.90
2022-07-31T05:10:43.447Z,17.83
2022-07-31T05:13:13.368Z,16.63
2022-07-31T05:15:44.738Z,12.63
2022-07-31T05:18:13.553Z,10.10
2022-07-31T05:20:42.183Z,9.00
2022-07-31T05:23:10.923Z,13.87
2022-07-31T05:25:40.469Z,9.30
2022-07-31T05:28:09.832Z,13.43
2022-07-31T05:30:40.061Z,7.57
2022-07-31T05:33:08.708Z,12.40
2022-07-31T05:35:40.813Z,7.67
2022-07-31T05:38:12.104Z,7.13
2022-07-31T05:40:40.861Z,11.40
2022-07-31T05:43:10.926Z,8.33
2022-07-31T05:45:40.984Z,8.60
2022-07-31T05:48:09.700Z,7.30
2022-07-31T05:50:38.246Z,7.50
2022-07-31T05:53:06.947Z,9.03
2022-07-31T05:55:35.510Z,6.63
2022-07-31T05:58:04.041Z,10.57
2022-07-31T06:00:32.619Z,6.60
2022-07-31T06:03:03.079Z,8.40
2022-07-31T06:05:32.109Z,8.00
2022-07-31T06:08:01.512Z,10.07
2022-07-31T06:10:30.377Z,5.80
2022-07-31T06:12:59.022Z,6.03
2022-07-31T06:15:27.735Z,7.13
2022-07-31T06:17:56.246Z,6.10
2022-07-31T06:20:26.313Z,6.47
2022-07-31T06:22:55.147Z,13.30
2022-07-31T06:25:23.685Z,7.20
2022-07-31T06:27:59.176Z,7.80
2022-07-31T06:30:28.691Z,5.93
2022-07-31T06:32:57.269Z,5.53
2022-07-31T06:35:27.450Z,7.13
2022-07-31T06:37:55.987Z,6.43
2022-07-31T06:40:24.701Z,6.03
2022-07-31T06:42:53.431Z,11.37
2022-07-31T06:45:41.902Z,6.43
2022-07-31T06:48:15.516Z,7.60
2022-07-31T06:50:45.631Z,8.20
2022-07-31T06:53:14.248Z,8.37
2022-07-31T06:58:26.641Z,6.37
2022-07-31T07:00:55.202Z,9.43
2022-07-31T07:03:23.972Z,8.10
2022-07-31T07:05:56.270Z,7.00
2022-07-31T07:08:25.173Z,10.50
2022-07-31T07:10:53.722Z,8.10
2022-07-31T07:13:23.590Z,13.27
2022-07-31T07:15:52.318Z,10.47
2022-07-31T07:18:22.094Z,15.43
2022-07-31T07:20:52.885Z,10.60
2022-07-31T07:23:23.611Z,14.57
2022-07-31T07:25:52.330Z,9.37
2022-07-31T07:28:30.624Z,8.83
2022-07-31T07:30:59.793Z,13.83
2022-07-31T07:33:40.481Z,8.70
2022-07-31T07:36:23.728Z,15.20
2022-07-31T07:38:56.041Z,11.90
2022-07-31T07:41:25.561Z,14.20
2022-07-31T07:43:54.325Z,14.47
2022-07-31T07:46:23.561Z,11.87
2022-07-31T07:48:52.956Z,10.20
2022-07-31T07:51:22.427Z,10.60
2022-07-31T07:53:51.220Z,13.03
2022-07-31T07:56:21.121Z,9.30
2022-07-31T07:58:50.092Z,13.73
2022-07-31T08:01:19.764Z,9.97
2022-07-31T08:03:52.084Z,9.60
2022-07-31T08:06:22.627Z,9.73
2022-07-31T08:08:51.241Z,15.73
2022-07-31T08:11:21.602Z,8.93
2022-07-31T08:13:51.325Z,9.70
2022-07-31T08:16:20.950Z,9.53
2022-07-31T08:18:50.114Z,10.70
2022-07-31T08:21:18.642Z,8.53
2022-07-31T08:23:47.412Z,9.30
2022-07-31T08:26:17.337Z,15.40
2022-07-31T08:28:49.813Z,7.63
2022-07-31T08:31:19.850Z,18.20
2022-07-31T08:33:48.542Z,8.40
2022-07-31T08:36:17.147Z,7.77
2022-07-31T08:38:45.683Z,9.80
2022-07-31T08:41:15.643Z,6.80
2022-07-31T08:44:02.436Z,12.63
2022-07-31T08:46:34.674Z,8.10
2022-07-31T08:49:04.521Z,10.10
2022-07-31T08:51:50.757Z,10.57
2022-07-31T08:54:21.198Z,9.30
2022-07-31T08:56:52.570Z,7.73
2022-07-31T08:59:22.104Z,8.63
2022-07-31T09:01:53.125Z,11.70
2022-07-31T09:04:21.637Z,12.07
2022-07-31T09:06:50.206Z,6.80
2022-07-31T09:09:19.338Z,8.00
2022-07-31T09:11:49.130Z,13.17
2022-07-31T09:14:28.498Z,8.10
2022-07-31T09:16:59.173Z,8.60
2022-07-31T09:19:51.873Z,8.03
2022-07-31T09:22:24.073Z,7.63
2022-07-31T09:24:53.177Z,7.97
2022-07-31T09:27:28.811Z,8.13
2022-07-31T09:29:58.418Z,9.20
2022-07-31T09:32:28.357Z,8.47
2022-07-31T09:35:07.131Z,9.03
2022-07-31T09:37:35.816Z,8.47
2022-07-31T09:40:05.196Z,7.10
2022-07-31T09:42:55.204Z,7.50
2022-07-31T09:45:25.720Z,9.33
2022-07-31T09:48:15.214Z,11.00
2022-07-31T09:50:55.235Z,7.03
2022-07-31T09:53:24.061Z,5.63
2022-07-31T09:55:54.044Z,15.20
2022-07-31T09:58:23.162Z,8.97
2022-07-31T10:00:53.501Z,14.30
2022-07-31T10:03:27.155Z,7.80
2022-07-31T10:05:56.376Z,8.17
2022-07-31T10:08:29.018Z,7.43
2022-07-31T10:10:57.566Z,10.13
2022-07-31T10:13:26.394Z,6.03
2022-07-31T10:15:58.752Z,15.43
2022-07-31T10:18:35.851Z,6.17
2022-07-31T10:21:07.543Z,11.47
2022-07-31T10:23:40.322Z,10.77
2022-07-31T10:26:09.058Z,6.20
2022-07-31T10:28:39.199Z,10.77
2022-07-31T10:31:08.495Z,7.77
2022-07-31T10:33:44.187Z,15.03
2022-07-31T10:36:19.505Z,6.03
2022-07-31T10:38:52.860Z,7.13
2022-07-31T10:41:33.341Z,9.03
2022-07-31T10:44:06.596Z,13.87
2022-07-31T10:46:35.836Z,7.70
2022-07-31T10:49:08.292Z,6.67
2022-07-31T10:51:48.460Z,10.23
2022-07-31T10:54:17.104Z,10.57
2022-07-31T10:56:47.711Z,10.17
2022-07-31T10:59:16.277Z,9.30
2022-07-31T11:01:53.101Z,5.33
2022-07-31T11:04:30.577Z,6.87
2022-07-31T11:06:59.746Z,6.50
2022-07-31T11:09:30.270Z,10.57
2022-07-31T11:11:58.775Z,7.07
2022-07-31T11:14:34.333Z,5.80
2022-07-31T11:17:04.509Z,6.17
2022-07-31T11:19:41.591Z,5.20
2022-07-31T11:22:31.328Z,5.67
2022-07-31T11:25:06.719Z,5.47
2022-07-31T11:27:35.572Z,6.67
2022-07-31T11:30:13.049Z,5.70
2022-07-31T11:32:42.146Z,6.40
2022-07-31T11:35:11.992Z,6.33
2022-07-31T11:37:56.925Z,5.67
2022-07-31T11:40:27.926Z,5.57
2022-07-31T11:43:25.264Z,4.53
2022-07-31T11:45:51.303Z,5.37
2022-07-31T11:48:21.286Z,7.03
2022-07-31T11:50:54.436Z,4.67
2022-07-31T11:53:24.696Z,10.30
2022-07-31T11:55:54.962Z,8.73
2022-07-31T11:58:24.563Z,6.20
2022-07-31T12:00:54.461Z,5.50
2022-07-31T12:03:24.469Z,8.83
2022-07-31T12:05:58.601Z,5.37
2022-07-31T12:08:30.667Z,4.97
2022-07-31T12:11:00.989Z,6.00
2022-07-31T12:13:30.523Z,7.87
2022-07-31T12:16:04.216Z,10.20
2022-07-31T12:18:46.791Z,3.83
2022-07-31T12:21:17.433Z,5.60
2022-07-31T12:23:47.682Z,8.90
2022-07-31T12:26:26.140Z,4.17
2022-07-31T12:29:01.803Z,6.80
2022-07-31T12:31:32.438Z,3.80
2022-07-31T12:34:01.070Z,5.40
2022-07-31T12:36:32.249Z,2.87
2022-07-31T12:39:02.348Z,6.70
2022-07-31T12:41:31.456Z,8.03
2022-07-31T12:44:11.013Z,4.30
2022-07-31T12:46:42.140Z,4.47
2022-07-31T12:49:10.883Z,4.10
2022-07-31T12:51:46.200Z,4.60
2022-07-31T12:54:16.581Z,2.70
2022-07-31T12:56:46.628Z,3.50
2022-07-31T12:59:15.735Z,11.10
2022-07-31T13:01:44.315Z,6.43
2022-07-31T13:04:18.710Z,3.87
2022-07-31T13:06:51.547Z,5.40
2022-07-31T13:09:21.122Z,5.13
2022-07-31T13:11:53.218Z,3.77
2022-07-31T13:14:24.780Z,3.87
2022-07-31T13:16:55.091Z,4.20
2022-07-31T13:19:23.857Z,3.93
2022-07-31T13:21:56.720Z,4.00
2022-07-31T13:24:25.789Z,3.53
2022-07-31T13:26:54.377Z,4.83
2022-07-31T13:29:23.019Z,3.43
2022-07-31T13:31:51.753Z,3.97
2022-07-31T13:34:20.795Z,5.20
2022-07-31T13:36:49.377Z,3.70
2022-07-31T13:39:19.336Z,4.17
2022-07-31T13:41:47.866Z,3.67
2022-07-31T13:44:16.977Z,5.43
2022-07-31T13:46:45.540Z,2.93
2022-07-31T13:49:14.193Z,3.57
2022-07-31T13:51:42.840Z,2.90
2022-07-31T13:54:11.372Z,2.40
2022-07-31T13:56:43.694Z,2.83
2022-07-31T13:59:13.507Z,3.10
2022-07-31T14:02:04.652Z,2.50
2022-07-31T14:04:32.503Z,2.50
2022-07-31T14:07:03.426Z,4.33
2022-07-31T14:09:35.933Z,6.97
2022-07-31T14:12:06.510Z,5.23
2022-07-31T14:14:35.676Z,5.07
2022-07-31T14:17:04.658Z,6.00
2022-07-31T14:19:40.489Z,4.80
2022-07-31T14:22:14.223Z,2.33
2022-07-31T14:24:45.617Z,3.40
2022-07-31T14:27:21.692Z,3.07
2022-07-31T14:29:50.457Z,2.43
2022-07-31T14:32:19.708Z,2.70
2022-07-31T14:34:48.634Z,9.30
2022-07-31T14:37:17.299Z,3.50
2022-07-31T14:39:46.050Z,2.90
2022-07-31T14:42:14.714Z,7.70
2022-07-31T14:44:45.566Z,9.33
2022-07-31T14:47:14.496Z,3.37
2022-07-31T14:50:07.613Z,5.40
2022-07-31T14:52:32.294Z,3.10
2022-07-31T14:55:01.760Z,2.57
2022-07-31T14:57:31.554Z,4.20
2022-07-31T15:00:01.568Z,6.20
2022-07-31T15:02:30.138Z,2.90
2022-07-31T15:04:58.601Z,1.80
2022-07-31T15:07:48.151Z,2.83
2022-07-31T15:10:16.912Z,2.10
2022-07-31T15:12:45.418Z,1.83
2022-07-31T15:15:15.341Z,11.03
2022-07-31T15:17:43.846Z,4.87
2022-07-31T15:20:13.338Z,2.50
2022-07-31T15:22:41.900Z,2.00
2022-07-31T15:25:11.191Z,2.30
2022-07-31T15:27:39.705Z,2.50
2022-07-31T15:30:09.197Z,2.03
2022-07-31T15:32:40.110Z,2.97
2022-07-31T15:35:10.551Z,4.20
2022-07-31T15:37:40.512Z,3.13
2022-07-31T15:40:11.365Z,2.80
2022-07-31T15:42:41.738Z,3.73
2022-07-31T15:45:12.218Z,2.70
2022-07-31T15:47:43.171Z,3.17
2022-07-31T15:50:13.948Z,7.30
2022-07-31T15:52:43.202Z,5.17
2022-07-31T15:55:12.609Z,2.50
2022-07-31T15:57:41.265Z,4.67
2022-07-31T16:00:12.201Z,6.23
2022-07-31T16:02:43.249Z,2.30
2022-07-31T16:05:21.774Z,4.03
2022-07-31T16:08:30.275Z,2.90
2022-07-31T16:10:54.713Z,2.77
2022-07-31T16:13:23.964Z,2.40
2022-07-31T16:15:52.541Z,2.40
2022-07-31T16:18:22.640Z,2.13
2022-07-31T16:20:51.236Z,2.50
2022-07-31T16:23:19.773Z,4.40
2022-07-31T16:25:48.503Z,2.17
2022-07-31T16:28:17.144Z,1.90
2022-07-31T16:30:46.689Z,2.93
2022-07-31T16:33:15.648Z,3.30
2022-07-31T16:35:45.565Z,1.90
2022-07-31T16:38:14.141Z,2.20
2022-07-31T16:40:42.934Z,2.70
2022-07-31T16:43:49.201Z,5.93
2022-07-31T16:46:00.005Z,1.83
2022-07-31T16:48:28.514Z,1.50
2022-07-31T16:50:58.367Z,2.20
2022-07-31T16:54:11.311Z,1.53
2022-07-31T16:56:18.900Z,3.27
2022-07-31T16:58:51.331Z,2.00
2022-07-31T17:01:56.719Z,5.33
2022-07-31T17:04:13.761Z,7.50
2022-07-31T17:06:43.629Z,3.50
2022-07-31T17:09:16.531Z,9.17
2022-07-31T17:11:48.150Z,3.00
2022-07-31T17:14:17.242Z,4.73
2022-07-31T17:16:48.297Z,3.47
2022-07-31T17:19:40.991Z,4.20
2022-07-31T17:22:11.018Z,1.60
2022-07-31T17:24:40.569Z,2.50
2022-07-31T17:27:10.364Z,1.93
2022-07-31T17:29:39.500Z,4.60
2022-07-31T17:32:08.381Z,2.23
2022-07-31T17:34:40.208Z,1.70
2022-07-31T17:37:10.396Z,1.87
2022-07-31T17:39:39.151Z,5.00
2022-07-31T17:42:09.366Z,4.80
2022-07-31T17:44:38.176Z,3.20
2022-07-31T17:47:09.872Z,1.80
2022-07-31T17:49:38.817Z,3.97
2022-07-31T17:52:09.940Z,9.13
2022-07-31T17:54:38.642Z,3.27
2022-07-31T17:57:07.727Z,4.47
2022-07-31T17:59:36.616Z,3.23
2022-07-31T18:02:07.435Z,4.27
2022-07-31T18:04:38.065Z,6.50
2022-07-31T18:07:09.080Z,2.53
2022-07-31T18:09:37.731Z,2.67
2022-07-31T18:12:08.932Z,8.43
2022-07-31T18:14:39.771Z,3.53
2022-07-31T18:17:08.525Z,6.20
2022-07-31T18:19:37.188Z,6.80
2022-07-31T18:22:06.091Z,9.03
2022-07-31T18:24:36.284Z,3.37
2022-07-31T18:27:05.034Z,11.57
2022-07-31T18:29:33.554Z,5.30
2022-07-31T18:32:02.292Z,8.13
2022-07-31T18:34:31.107Z,6.10
2022-07-31T18:36:59.626Z,7.80
2022-07-31T18:39:28.176Z,3.30
2022-07-31T18:41:58.112Z,2.73
2022-07-31T18:44:26.637Z,2.33
2022-07-31T18:46:56.150Z,6.73
2022-07-31T18:50:59.861Z,5.63
2022-07-31T18:52:13.130Z,14.30
2022-07-31T18:54:42.662Z,4.07
2022-07-31T18:57:12.662Z,7.47
2022-07-31T18:59:41.142Z,6.23
2022-07-31T19:02:11.538Z,5.73
2022-07-31T19:04:40.768Z,11.27
2022-07-31T19:07:10.146Z,2.40
2022-07-31T19:09:47.395Z,5.20
2022-07-31T19:12:38.175Z,15.40
2022-07-31T19:15:14.098Z,19.73
2022-07-31T19:17:58.651Z,11.80
2022-07-31T19:20:55.734Z,10.60
2022-07-31T19:23:50.577Z,6.23
2022-07-31T19:26:27.079Z,2.67
2022-07-31T19:29:16.896Z,6.40
2022-07-31T19:31:48.457Z,5.50
2022-07-31T19:34:25.546Z,2.97
2022-07-31T19:36:58.739Z,4.40
2022-07-31T19:39:38.407Z,12.90
2022-07-31T19:42:15.101Z,2.80
2022-07-31T19:44:51.753Z,12.80
2022-07-31T19:47:30.013Z,2.03
2022-07-31T19:49:58.711Z,3.80
2022-07-31T19:52:27.269Z,3.83
2022-07-31T19:54:56.010Z,7.30
2022-07-31T19:57:24.540Z,3.27
2022-07-31T19:59:54.649Z,3.23
2022-07-31T20:02:23.568Z,7.67
2022-07-31T20:04:53.400Z,10.03
2022-07-31T20:07:22.436Z,8.37
2022-07-31T20:09:52.915Z,3.53
2022-07-31T20:12:23.302Z,6.97
2022-07-31T20:14:53.517Z,19.77
2022-07-31T20:17:22.283Z,6.87
2022-07-31T20:20:02.953Z,4.73
2022-07-31T20:22:39.768Z,4.90
2022-07-31T20:25:20.182Z,8.67
2022-07-31T20:27:49.907Z,4.03
2022-07-31T20:30:22.241Z,4.07
2022-07-31T20:32:53.862Z,11.60
2022-07-31T20:35:31.083Z,15.47
2022-07-31T20:38:15.925Z,5.63
2022-07-31T20:40:49.939Z,11.83
2022-07-31T20:43:23.600Z,6.67
2022-07-31T20:45:54.665Z,8.67
2022-07-31T20:48:24.704Z,4.20
2022-07-31T20:50:57.353Z,4.17
2022-07-31T20:53:26.108Z,7.87
2022-07-31T20:55:54.711Z,8.03
2022-07-31T20:58:24.698Z,5.20
2022-07-31T21:00:56.247Z,3.10
2022-07-31T21:03:25.052Z,7.17
2022-07-31T21:05:54.268Z,5.50
2022-07-31T21:08:23.469Z,6.53
2022-07-31T21:10:52.287Z,8.70
2022-07-31T21:13:21.715Z,9.67
2022-07-31T21:15:51.580Z,11.20
2022-07-31T21:18:22.619Z,2.77
2022-07-31T21:20:53.797Z,3.93
2022-07-31T21:23:25.820Z,7.20
2022-07-31T21:25:57.381Z,9.27
2022-07-31T21:28:29.162Z,6.17
2022-07-31T21:30:58.310Z,3.67
2022-07-31T21:33:31.297Z,3.40
2022-07-31T21:36:01.427Z,6.67
2022-07-31T21:38:30.867Z,4.73
2022-07-31T21:41:34.501Z,3.40
2022-07-31T21:44:06.426Z,3.27
2022-07-31T21:46:42.045Z,3.07
2022-07-31T21:49:20.411Z,4.33
2022-07-31T21:51:49.704Z,3.30
2022-07-31T21:54:19.594Z,3.33
2022-07-31T21:56:48.582Z,6.00
2022-07-31T21:59:17.256Z,3.53
2022-07-31T22:01:57.496Z,5.30
2022-07-31T22:04:34.522Z,4.97
2022-07-31T22:07:21.508Z,7.17
2022-07-31T22:09:50.258Z,8.07
2022-07-31T22:12:26.516Z,3.23
2022-07-31T22:18:33.077Z,8.40
2022-07-31T22:21:52.788Z,6.10
2022-07-31T22:24:38.293Z,8.10
2022-07-31T22:27:38.682Z,9.40
2022-07-31T22:30:22.803Z,3.50
2022-07-31T22:36:17.217Z,7.63
2022-07-31T22:38:53.025Z,5.60
2022-07-31T22:41:39.257Z,11.40
2022-07-31T22:44:39.803Z,11.63
2022-07-31T22:48:13.170Z,3.87
2022-07-31T22:50:28.472Z,4.27
2022-07-31T22:53:20.540Z,9.53
2022-07-31T22:56:07.526Z,11.67
2022-07-31T22:59:10.649Z,29.20
2022-07-31T23:01:52.725Z,6.10
2022-07-31T23:04:38.952Z,10.67
2022-07-31T23:07:53.417Z,5.23
2022-07-31T23:10:30.749Z,7.33
2022-07-31T23:17:00.275Z,5.87
2022-07-31T23:22:47.525Z,4.07
2022-07-31T23:25:20.933Z,6.00
2022-07-31T23:28:01.362Z,12.57
2022-07-31T23:31:17.835Z,4.30
2022-07-31T23:34:17.861Z,5.57
2022-07-31T23:37:05.805Z,5.20
2022-07-31T23:39:59.286Z,10.93
2022-07-31T23:42:55.249Z,4.07
2022-07-31T23:45:33.302Z,4.50
2022-07-31T23:48:15.404Z,6.83
2022-07-31T23:51:01.220Z,14.27
2022-07-31T23:53:51.310Z,4.67
